Time;durP1;ratioP1;P1;durP2;ratioP2;P2;SDS_P1;SDS_P2;PMS_P1;PMS_P2;Temp;Humidity;BMP_temperature;BMP_pressure;BME280_temperature;BME280_humidity;BME280_pressure;Samples;Min_cycle;Max_cycle;Signal;HPM_P1;HPM_P2
2022/06/16 00:02:22;;;;;;;22.23;8.33;;;13.40;99.90;;;;;;4842365;29;20325;-56
2022/06/16 00:04:48;;;;;;;15.83;8.97;;;13.30;99.90;;;;;;4842468;29;20273;-58
2022/06/16 00:07:17;;;;;;;15.00;8.37;;;13.40;99.90;;;;;;4839364;29;20300;-56
2022/06/16 00:09:42;;;;;;;13.27;7.57;;;13.40;99.90;;;;;;4840902;29;20201;-55
2022/06/16 00:12:09;;;;;;;22.30;9.27;;;13.40;99.90;;;;;;4823749;29;20221;-55
2022/06/16 00:14:34;;;;;;;11.83;7.50;;;13.30;99.90;;;;;;4824246;29;20559;-56
2022/06/16 00:17:00;;;;;;;14.17;7.33;;;13.30;99.90;;;;;;4823606;29;20734;-59
2022/06/16 00:19:26;;;;;;;15.50;7.83;;;13.20;99.90;;;;;;4824134;29;20202;-58
2022/06/16 00:21:52;;;;;;;13.57;7.90;;;13.10;99.90;;;;;;4824207;29;20591;-56
2022/06/16 00:24:18;;;;;;;18.83;8.93;;;13.00;99.90;;;;;;4823879;29;20187;-58
2022/06/16 00:26:43;;;;;;;19.13;8.77;;;13.00;99.90;;;;;;4807297;29;20666;-55
2022/06/16 00:29:09;;;;;;;18.17;8.17;;;12.90;99.90;;;;;;4823851;29;20248;-56
2022/06/16 00:31:36;;;;;;;20.00;10.97;;;12.80;99.90;;;;;;4823863;29;20197;-56
2022/06/16 00:34:01;;;;;;;19.87;10.33;;;12.80;99.90;;;;;;4823712;29;20269;-58
2022/06/16 00:36:27;;;;;;;27.53;12.30;;;12.80;99.90;;;;;;4823827;29;20232;-58
2022/06/16 00:38:53;;;;;;;33.77;12.53;;;12.70;99.90;;;;;;4823921;29;20186;-58
2022/06/16 00:41:18;;;;;;;34.07;12.40;;;12.70;99.90;;;;;;4823370;29;20213;-56
2022/06/16 00:43:45;;;;;;;24.57;10.63;;;12.80;99.90;;;;;;4823816;29;20217;-57
2022/06/16 00:46:17;;;;;;;19.47;9.43;;;12.70;99.90;;;;;;4823143;29;20227;-56
2022/06/16 00:48:49;;;;;;;22.33;11.20;;;12.70;99.90;;;;;;4823625;29;20344;-55
2022/06/16 00:51:39;;;;;;;19.50;10.47;;;12.60;99.90;;;;;;4822666;29;20194;-56
2022/06/16 00:54:13;;;;;;;22.90;10.77;;;12.60;99.90;;;;;;4813190;29;20206;-56
2022/06/16 00:56:39;;;;;;;23.47;10.13;;;12.60;99.90;;;;;;4850446;29;20188;-56
2022/06/16 00:59:07;;;;;;;18.40;9.23;;;12.60;99.90;;;;;;4859908;29;20189;-56
2022/06/16 01:01:35;;;;;;;23.07;10.17;;;12.60;99.90;;;;;;4859743;29;20253;-56
2022/06/16 01:06:46;;;;;;;17.97;8.23;;;12.60;99.90;;;;;;4859626;29;20371;-54
2022/06/16 01:09:20;;;;;;;18.17;8.07;;;12.60;99.90;;;;;;4859590;29;20189;-56
2022/06/16 01:14:57;;;;;;;15.13;8.13;;;12.50;99.90;;;;;;4841627;29;20195;-56
2022/06/16 01:17:38;;;;;;;13.83;8.07;;;12.50;99.90;;;;;;4840928;29;20189;-59
2022/06/16 01:20:12;;;;;;;13.73;8.27;;;12.40;99.90;;;;;;4841216;29;20184;-56
2022/06/16 01:22:53;;;;;;;15.47;8.80;;;12.30;99.90;;;;;;4841270;29;20197;-56
2022/06/16 01:25:36;;;;;;;13.33;8.57;;;12.20;99.90;;;;;;4840964;29;20204;-54
2022/06/16 01:28:23;;;;;;;25.47;10.10;;;12.20;99.90;;;;;;4847056;29;20245;-56
2022/06/16 01:30:57;;;;;;;16.90;8.93;;;12.10;99.90;;;;;;4859711;29;20177;-58
2022/06/16 01:33:40;;;;;;;17.07;8.63;;;12.10;99.90;;;;;;4859239;29;20194;-56
2022/06/16 01:36:30;;;;;;;16.43;8.87;;;12.00;99.90;;;;;;4859419;29;20191;-54
2022/06/16 01:39:08;;;;;;;19.53;9.37;;;11.90;99.90;;;;;;4859621;29;20279;-56
2022/06/16 01:41:53;;;;;;;38.83;11.40;;;12.00;99.90;;;;;;4859384;29;20268;-57
2022/06/16 01:44:36;;;;;;;15.27;8.77;;;12.00;99.90;;;;;;4859169;29;20199;-55
2022/06/16 01:47:12;;;;;;;15.43;9.07;;;12.10;99.90;;;;;;4859180;29;20282;-58
2022/06/16 01:49:59;;;;;;;26.23;10.80;;;12.00;99.90;;;;;;4842389;29;20191;-55
2022/06/16 01:52:31;;;;;;;13.93;9.07;;;12.00;99.90;;;;;;4859428;29;20228;-55
2022/06/16 01:55:05;;;;;;;18.03;8.73;;;12.00;99.90;;;;;;4859919;29;20178;-56
2022/06/16 01:57:37;;;;;;;13.53;9.47;;;12.00;99.90;;;;;;4877977;29;20582;-55
2022/06/16 02:00:11;;;;;;;19.27;10.40;;;12.00;99.90;;;;;;4877784;29;20191;-58
2022/06/16 02:02:40;;;;;;;17.63;9.50;;;12.00;99.90;;;;;;4878817;29;20599;-56
2022/06/16 02:05:10;;;;;;;19.63;10.00;;;12.10;99.90;;;;;;4881392;29;20199;-56
2022/06/16 02:07:44;;;;;;;20.37;10.87;;;12.20;99.90;;;;;;4881779;29;20200;-56
2022/06/16 02:10:18;;;;;;;25.77;11.93;;;12.20;99.90;;;;;;4876057;29;20641;-54
2022/06/16 02:12:56;;;;;;;21.67;10.73;;;12.30;99.90;;;;;;4862740;29;20219;-57
2022/06/16 02:15:49;;;;;;;15.27;9.40;;;12.30;99.90;;;;;;4862597;29;20283;-54
2022/06/16 02:18:20;;;;;;;17.70;9.13;;;12.40;99.90;;;;;;4862438;29;20197;-59
2022/06/16 02:20:53;;;;;;;14.30;7.93;;;12.40;99.90;;;;;;4862871;29;20180;-56
2022/06/16 02:23:20;;;;;;;14.97;7.17;;;12.40;99.90;;;;;;4862395;29;20200;-56
2022/06/16 02:25:49;;;;;;;12.90;6.30;;;12.40;99.90;;;;;;4846148;29;20228;-57
2022/06/16 02:28:15;;;;;;;10.33;6.40;;;12.50;99.90;;;;;;4861994;29;20233;-56
2022/06/16 02:31:04;;;;;;;23.93;8.13;;;12.50;99.90;;;;;;4862551;29;20215;-54
2022/06/16 02:33:48;;;;;;;10.77;6.47;;;12.50;99.90;;;;;;4862413;29;20185;-56
2022/06/16 02:36:29;;;;;;;18.00;8.63;;;12.60;99.90;;;;;;4863035;29;20249;-57
2022/06/16 02:39:32;;;;;;;15.10;7.63;;;12.70;99.90;;;;;;4862499;29;20192;-57
2022/06/16 02:42:04;;;;;;;19.57;9.03;;;12.80;99.90;;;;;;4862197;29;20191;-54
2022/06/16 02:44:45;;;;;;;17.13;8.60;;;12.80;99.90;;;;;;4862492;29;20192;-58
2022/06/16 02:47:54;;;;;;;24.00;8.73;;;12.80;99.90;;;;;;4861881;29;20224;-58
2022/06/16 02:50:37;;;;;;;26.13;9.20;;;12.80;99.90;;;;;;4860133;29;20197;-55
2022/06/16 02:56:20;;;;;;;22.97;8.90;;;12.80;99.90;;;;;;4871469;29;20244;-56
2022/06/16 02:58:49;;;;;;;15.13;8.40;;;12.90;99.90;;;;;;4880496;29;20230;-57
2022/06/16 03:01:16;;;;;;;15.63;7.13;;;12.90;99.90;;;;;;4880495;29;20280;-56
2022/06/16 03:03:59;;;;;;;11.87;7.37;;;12.80;99.90;;;;;;4880608;29;20181;-57
2022/06/16 03:06:25;;;;;;;18.53;8.43;;;12.90;99.90;;;;;;4879897;29;20226;-57
2022/06/16 03:08:50;;;;;;;22.67;8.80;;;12.90;99.90;;;;;;4880353;29;20188;-56
2022/06/16 03:11:16;;;;;;;21.87;8.40;;;12.90;99.90;;;;;;4866146;29;20593;-55
2022/06/16 03:13:42;;;;;;;26.37;8.13;;;12.80;99.90;;;;;;4861249;29;20258;-58
2022/06/16 03:16:10;;;;;;;16.90;8.57;;;12.80;99.90;;;;;;4860947;29;20545;-54
2022/06/16 03:18:35;;;;;;;17.07;9.00;;;12.80;99.90;;;;;;4861693;29;20654;-54
2022/06/16 03:21:01;;;;;;;17.83;7.73;;;12.70;99.90;;;;;;4861357;29;20207;-56
2022/06/16 03:23:27;;;;;;;21.47;8.37;;;12.70;99.90;;;;;;4861193;29;20278;-58
2022/06/16 03:25:53;;;;;;;22.50;8.13;;;12.70;99.90;;;;;;4861263;29;20239;-56
2022/06/16 03:28:19;;;;;;;18.93;8.93;;;12.70;99.90;;;;;;4860732;29;20225;-56
2022/06/16 03:30:45;;;;;;;15.80;7.97;;;12.70;99.90;;;;;;4861222;29;20200;-56
2022/06/16 03:33:11;;;;;;;16.47;8.33;;;12.70;99.90;;;;;;4860455;29;20284;-58
2022/06/16 03:35:38;;;;;;;26.47;9.27;;;12.70;99.90;;;;;;4860718;29;20304;-56
2022/06/16 03:38:14;;;;;;;23.00;7.80;;;12.70;99.90;;;;;;4861262;29;20193;-56
2022/06/16 03:40:40;;;;;;;18.47;8.50;;;12.70;99.90;;;;;;4860849;29;20192;-59
2022/06/16 03:43:06;;;;;;;23.87;8.70;;;12.90;99.90;;;;;;4861136;29;20248;-58
2022/06/16 03:45:32;;;;;;;10.43;6.50;;;13.00;99.90;;;;;;4860622;29;20221;-55
2022/06/16 03:47:59;;;;;;;14.00;6.80;;;13.10;99.90;;;;;;4860892;29;20197;-58
2022/06/16 03:50:25;;;;;;;11.70;6.83;;;13.20;99.90;;;;;;4860206;29;20218;-57
2022/06/16 03:52:50;;;;;;;26.90;8.30;;;13.20;99.90;;;;;;4860190;29;20194;-57
2022/06/16 03:55:16;;;;;;;17.07;8.20;;;13.30;99.90;;;;;;4863088;29;20190;-53
2022/06/16 03:57:42;;;;;;;16.43;9.00;;;13.40;99.90;;;;;;4879075;29;20192;-58
2022/06/16 04:00:09;;;;;;;13.37;8.23;;;13.40;99.90;;;;;;4879105;29;20241;-64
2022/06/16 04:02:35;;;;;;;23.03;8.90;;;13.50;99.90;;;;;;4878900;29;20285;-58
2022/06/16 04:05:01;;;;;;;14.60;8.57;;;13.50;99.90;;;;;;4862732;29;20181;-56
2022/06/16 04:07:28;;;;;;;14.50;8.20;;;13.60;99.90;;;;;;4878753;29;20243;-54
2022/06/16 04:09:54;;;;;;;20.73;8.17;;;13.60;99.90;;;;;;4875535;29;20189;-56
2022/06/16 04:12:20;;;;;;;8.40;6.50;;;13.70;99.90;;;;;;4843743;29;20185;-55
2022/06/16 04:14:46;;;;;;;13.27;6.97;;;13.80;99.90;;;;;;4860344;29;20614;-56
2022/06/16 04:17:11;;;;;;;16.77;7.93;;;13.90;99.90;;;;;;4860154;29;20195;-56
2022/06/16 04:20:11;;;;;;;14.57;6.97;;;14.00;99.90;;;;;;4843413;29;20291;-58
2022/06/16 04:22:23;;;;;;;13.47;6.83;;;14.10;99.90;;;;;;4859139;29;20193;-58
2022/06/16 04:24:49;;;;;;;11.97;6.90;;;14.20;99.90;;;;;;4860014;29;20612;-56
2022/06/16 04:27:14;;;;;;;11.20;6.60;;;14.30;99.90;;;;;;4859472;29;20312;-56
2022/06/16 04:29:40;;;;;;;12.77;6.17;;;14.30;99.90;;;;;;4859690;29;20603;-57
2022/06/16 04:32:06;;;;;;;11.20;6.53;;;14.50;99.90;;;;;;4842845;29;20242;-56
2022/06/16 04:34:32;;;;;;;13.60;6.23;;;14.50;99.90;;;;;;4858730;29;20201;-58
2022/06/16 04:36:58;;;;;;;12.33;6.70;;;14.60;99.90;;;;;;4859135;29;20203;-57
2022/06/16 04:39:23;;;;;;;14.17;6.30;;;14.70;99.90;;;;;;4859060;29;20204;-57
2022/06/16 04:41:49;;;;;;;12.97;6.40;;;14.80;99.90;;;;;;4859480;29;20291;-57
2022/06/16 04:44:15;;;;;;;20.13;6.30;;;14.90;99.90;;;;;;4859289;29;20193;-58
2022/06/16 04:46:40;;;;;;;18.70;6.60;;;15.00;99.90;;;;;;4859309;29;20223;-59
2022/06/16 04:49:06;;;;;;;17.30;6.00;;;15.00;99.90;;;;;;4859422;29;20571;-60
2022/06/16 04:51:32;;;;;;;10.50;6.03;;;15.00;99.90;;;;;;4858798;29;20203;-60
2022/06/16 04:53:58;;;;;;;18.27;6.27;;;15.00;99.90;;;;;;4859486;29;20275;-60
2022/06/16 04:56:24;;;;;;;13.03;5.67;;;15.10;99.90;;;;;;4870213;29;20206;-59
2022/06/16 04:58:49;;;;;;;14.83;5.70;;;15.20;99.90;;;;;;4877686;29;20191;-60
2022/06/16 05:01:15;;;;;;;14.30;6.43;;;15.30;99.90;;;;;;4877282;29;20554;-59
2022/06/16 05:03:41;;;;;;;21.30;6.83;;;15.40;99.90;;;;;;4877420;29;20278;-60
2022/06/16 05:06:06;;;;;;;18.47;7.47;;;15.50;99.90;;;;;;4877811;29;20220;-60
2022/06/16 05:08:32;;;;;;;12.10;6.40;;;15.60;99.90;;;;;;4876877;29;20196;-59
2022/06/16 05:10:58;;;;;;;13.77;6.10;;;15.60;99.90;;;;;;4846340;29;20182;-59
2022/06/16 05:13:24;;;;;;;14.00;7.33;;;15.80;99.90;;;;;;4839597;29;20379;-59
2022/06/16 05:15:53;;;;;;;18.13;6.80;;;15.90;99.90;;;;;;4840328;29;20204;-59
2022/06/16 05:18:19;;;;;;;13.93;6.87;;;16.00;99.90;;;;;;4843689;29;20265;-61
2022/06/16 05:20:45;;;;;;;12.23;7.37;;;16.10;99.90;;;;;;4857937;29;20201;-61
2022/06/16 05:23:12;;;;;;;22.77;7.47;;;16.20;99.90;;;;;;4845598;29;20198;-58
2022/06/16 05:25:39;;;;;;;16.97;6.77;;;16.30;99.90;;;;;;4851645;29;20233;-59
2022/06/16 05:28:05;;;;;;;20.27;7.33;;;16.40;99.90;;;;;;4838440;29;20241;-59
2022/06/16 05:30:31;;;;;;;13.63;5.80;;;16.40;99.90;;;;;;4827906;29;20342;-59
2022/06/16 05:32:57;;;;;;;18.13;6.07;;;16.40;99.90;;;;;;4835868;29;20311;-60
2022/06/16 05:35:23;;;;;;;23.00;6.77;;;16.40;99.90;;;;;;4824244;29;20190;-66
2022/06/16 05:37:49;;;;;;;23.97;7.50;;;16.50;99.90;;;;;;4832408;29;20549;-67
2022/06/16 05:40:14;;;;;;;11.50;5.70;;;16.60;99.90;;;;;;4839303;29;20225;-69
2022/06/16 05:42:41;;;;;;;9.47;5.80;;;16.60;99.90;;;;;;4836753;29;20277;-68
2022/06/16 05:45:09;;;;;;;20.07;6.77;;;16.70;99.90;;;;;;4839855;29;20195;-69
2022/06/16 05:47:39;;;;;;;20.03;6.20;;;16.80;99.90;;;;;;4820670;29;20683;-59
2022/06/16 05:50:06;;;;;;;19.33;9.67;;;16.90;99.90;;;;;;4827066;29;20208;-60
2022/06/16 05:52:32;;;;;;;20.53;7.63;;;17.10;99.90;;;;;;4835097;29;20213;-62
2022/06/16 05:54:58;;;;;;;21.27;7.03;;;17.40;99.90;;;;;;4831611;29;20261;-65
2022/06/16 05:57:23;;;;;;;24.83;9.20;;;17.60;99.90;;;;;;4830011;29;20210;-64
2022/06/16 05:59:49;;;;;;;23.90;7.60;;;17.70;99.90;;;;;;4820278;29;20275;-63
2022/06/16 06:02:18;;;;;;;20.73;6.50;;;17.90;99.90;;;;;;4829569;29;20210;-64
2022/06/16 06:04:44;;;;;;;13.60;6.13;;;18.10;99.90;;;;;;4838967;29;20186;-60
2022/06/16 06:07:10;;;;;;;11.57;5.20;;;18.20;99.90;;;;;;4829682;29;20721;-66
2022/06/16 06:18:06;;;;;;;8.40;4.77;;;18.20;99.90;;;;;;4827071;29;20205;-76
2022/06/16 06:20:32;;;;;;;11.70;4.60;;;18.20;99.90;;;;;;4839644;29;20227;-64
2022/06/16 06:22:58;;;;;;;8.50;3.97;;;18.30;99.90;;;;;;4821848;29;20198;-62
2022/06/16 06:25:24;;;;;;;14.63;5.00;;;18.30;99.90;;;;;;4820624;29;20210;-64
2022/06/16 06:27:51;;;;;;;13.23;4.03;;;18.40;99.90;;;;;;4817296;29;20246;-60
2022/06/16 06:30:22;;;;;;;16.97;3.77;;;18.50;99.90;;;;;;4820931;29;20600;-59
2022/06/16 06:32:48;;;;;;;15.00;3.50;;;18.50;99.90;;;;;;4822861;29;20203;-56
2022/06/16 06:35:19;;;;;;;11.30;3.83;;;18.50;99.80;;;;;;4821104;29;20245;-59
2022/06/16 06:37:45;;;;;;;12.87;3.67;;;18.60;99.90;;;;;;4832826;29;20210;-62
2022/06/16 06:40:27;;;;;;;6.00;3.70;;;18.70;99.90;;;;;;4820947;29;20221;-63
2022/06/16 06:42:53;;;;;;;14.57;4.33;;;18.90;99.10;;;;;;4813469;29;20221;-64
2022/06/16 06:45:19;;;;;;;12.13;3.22;;;19.00;97.70;;;;;;4844533;29;20690;-65
2022/06/16 06:47:46;;;;;;;13.50;3.70;;;19.00;96.90;;;;;;4821909;29;20206;-59
2022/06/16 06:50:34;;;;;;;12.30;3.72;;;19.10;97.00;;;;;;4822335;29;20213;-59
2022/06/16 06:53:00;;;;;;;10.65;3.38;;;19.20;96.00;;;;;;4819009;29;20193;-63
2022/06/16 06:55:25;;;;;;;9.80;3.53;;;19.20;96.90;;;;;;4841253;29;20200;-59
2022/06/16 06:57:52;;;;;;;9.60;3.58;;;19.10;96.20;;;;;;4831592;29;20198;-62
2022/06/16 07:00:20;;;;;;;9.45;4.18;;;19.20;97.00;;;;;;4823766;29;20195;-62
2022/06/16 07:02:46;;;;;;;14.13;4.72;;;19.40;96.80;;;;;;4836317;29;20599;-62
2022/06/16 07:05:13;;;;;;;10.45;3.65;;;19.40;96.60;;;;;;4824914;29;20190;-62
2022/06/16 07:07:39;;;;;;;27.33;5.33;;;19.40;96.10;;;;;;4818506;29;20264;-60
2022/06/16 07:10:07;;;;;;;13.60;4.28;;;19.40;95.90;;;;;;4842099;29;20659;-60
2022/06/16 07:12:34;;;;;;;11.57;3.50;;;19.60;95.50;;;;;;4840485;29;20272;-59
2022/06/16 07:15:00;;;;;;;34.70;4.95;;;19.50;95.10;;;;;;4841941;29;20186;-70
2022/06/16 07:17:26;;;;;;;8.77;3.33;;;19.50;94.90;;;;;;4841668;29;20185;-61
2022/06/16 07:19:53;;;;;;;9.13;3.63;;;19.50;96.30;;;;;;4825916;29;20250;-60
2022/06/16 07:22:20;;;;;;;8.95;3.63;;;19.50;96.50;;;;;;4841885;29;20181;-62
2022/06/16 07:24:48;;;;;;;9.95;4.00;;;19.50;96.20;;;;;;4842503;29;20208;-63
2022/06/16 07:27:15;;;;;;;7.57;3.78;;;19.40;96.20;;;;;;4841542;29;20230;-59
2022/06/16 07:29:41;;;;;;;8.25;3.30;;;19.50;95.90;;;;;;4860359;29;20227;-60
2022/06/16 07:32:07;;;;;;;9.02;3.72;;;19.50;95.20;;;;;;4860351;29;20293;-60
2022/06/16 07:34:33;;;;;;;7.13;3.08;;;19.70;95.00;;;;;;4843595;29;20183;-61
2022/06/16 07:36:59;;;;;;;9.75;3.45;;;19.90;94.50;;;;;;4860328;29;20704;-60
2022/06/16 07:39:24;;;;;;;7.53;3.13;;;20.10;95.30;;;;;;4859919;29;20291;-67
2022/06/16 07:41:50;;;;;;;21.52;6.90;;;20.10;94.90;;;;;;4859467;29;20189;-58
2022/06/16 07:44:16;;;;;;;5.25;3.53;;;20.10;94.20;;;;;;4859886;29;20192;-59
2022/06/16 07:46:46;;;;;;;12.73;3.58;;;20.20;94.70;;;;;;4860100;29;20249;-61
2022/06/16 07:49:16;;;;;;;15.98;7.97;;;20.40;95.00;;;;;;4860201;29;20665;-60
2022/06/16 07:51:42;;;;;;;10.27;4.60;;;20.50;95.20;;;;;;4859473;29;20197;-60
2022/06/16 07:54:10;;;;;;;19.95;5.03;;;20.70;95.10;;;;;;4859582;29;20245;-61
2022/06/16 07:56:37;;;;;;;7.43;3.50;;;20.70;94.70;;;;;;4872049;29;20661;-62
2022/06/16 07:59:02;;;;;;;9.40;3.53;;;20.80;94.70;;;;;;4878682;29;20197;-60
2022/06/16 08:01:29;;;;;;;20.95;5.97;;;20.80;94.00;;;;;;4876739;29;20197;-64
2022/06/16 08:03:55;;;;;;;9.18;3.45;;;20.70;93.70;;;;;;4859594;29;20236;-62
2022/06/16 08:06:26;;;;;;;12.38;3.50;;;20.70;93.70;;;;;;4876683;29;20227;-61
2022/06/16 08:08:53;;;;;;;14.63;3.55;;;20.50;93.20;;;;;;4878422;29;20214;-61
2022/06/16 08:14:04;;;;;;;8.75;3.97;;;20.70;93.00;;;;;;4859587;29;20556;-65
2022/06/16 08:16:32;;;;;;;9.52;3.28;;;20.70;91.70;;;;;;4859392;29;20185;-63
2022/06/16 08:18:59;;;;;;;5.80;2.65;;;20.70;91.60;;;;;;4859554;29;20646;-62
2022/06/16 08:21:25;;;;;;;8.02;3.28;;;20.60;91.20;;;;;;4842741;29;20200;-62
2022/06/16 08:23:51;;;;;;;10.85;3.25;;;20.70;91.80;;;;;;4859517;29;20647;-61
2022/06/16 08:26:17;;;;;;;7.18;2.75;;;20.80;92.20;;;;;;4859117;29;20345;-63
2022/06/16 08:28:43;;;;;;;20.48;5.85;;;21.00;91.40;;;;;;4859422;29;20237;-62
2022/06/16 08:31:09;;;;;;;10.43;3.80;;;21.10;90.90;;;;;;4842657;29;20197;-64
2022/06/16 08:33:36;;;;;;;5.25;2.80;;;21.30;90.70;;;;;;4858803;29;20700;-63
2022/06/16 08:36:03;;;;;;;4.65;2.85;;;21.20;89.30;;;;;;4842146;29;20189;-62
2022/06/16 08:38:29;;;;;;;8.98;2.75;;;21.00;88.80;;;;;;4858560;29;20250;-63
2022/06/16 08:41:12;;;;;;;14.20;4.45;;;21.00;89.50;;;;;;4859120;29;20191;-61
2022/06/16 08:43:56;;;;;;;5.90;2.35;;;21.20;88.90;;;;;;4824065;29;20948;-62
2022/06/16 08:46:27;;;;;;;16.98;3.08;;;21.20;86.60;;;;;;4839910;29;20221;-62
2022/06/16 08:48:58;;;;;;;4.38;2.75;;;21.30;85.60;;;;;;4824018;29;20715;-61
2022/06/16 08:51:53;;;;;;;14.98;4.68;;;21.40;87.10;;;;;;4839628;29;20254;-62
2022/06/16 08:54:45;;;;;;;6.85;2.78;;;21.30;86.30;;;;;;4840884;29;20206;-68
2022/06/16 08:57:30;;;;;;;13.52;3.22;;;21.40;83.90;;;;;;4874989;29;20188;-62
2022/06/16 09:00:08;;;;;;;10.25;3.05;;;21.50;83.30;;;;;;4877406;29;20188;-63
2022/06/16 09:02:46;;;;;;;4.78;3.00;;;21.60;82.50;;;;;;4876856;29;20195;-63
2022/06/16 09:05:53;;;;;;;14.65;3.50;;;21.80;82.10;;;;;;4877444;29;20618;-63
2022/06/16 09:08:27;;;;;;;13.02;3.50;;;21.90;82.40;;;;;;4819994;29;20205;-62
2022/06/16 09:11:16;;;;;;;8.27;3.40;;;22.00;82.90;;;;;;4842393;29;20332;-62
2022/06/16 09:15:10;;;;;;;9.68;3.15;;;22.10;82.70;;;;;;4838878;29;20277;-63
2022/06/16 09:17:34;;;;;;;7.60;3.10;;;22.40;82.60;;;;;;4839671;29;20308;-63
2022/06/16 09:20:23;;;;;;;11.18;4.22;;;22.60;79.90;;;;;;4839979;29;20194;-63
2022/06/16 09:23:23;;;;;;;9.80;3.38;;;22.40;78.60;;;;;;4839744;29;20182;-60
2022/06/16 09:26:03;;;;;;;12.55;3.47;;;22.50;78.80;;;;;;4810854;29;20308;-61
2022/06/16 09:28:37;;;;;;;15.70;4.15;;;22.70;78.60;;;;;;4829902;29;20230;-63
2022/06/16 09:31:13;;;;;;;8.50;3.30;;;22.80;77.90;;;;;;4821434;29;20197;-62
2022/06/16 09:33:43;;;;;;;14.15;3.17;;;22.70;76.70;;;;;;4821420;29;20564;-63
2022/06/16 09:36:30;;;;;;;9.55;2.95;;;22.70;75.80;;;;;;4821729;29;20262;-62
2022/06/16 09:39:26;;;;;;;11.30;2.80;;;22.60;76.00;;;;;;4821480;29;20201;-65
2022/06/16 09:45:01;;;;;;;16.95;3.85;;;22.70;74.90;;;;;;4839607;29;20576;-62
2022/06/16 09:47:33;;;;;;;6.53;2.92;;;22.70;75.90;;;;;;4839312;29;20229;-62
2022/06/16 09:50:11;;;;;;;9.73;3.65;;;22.70;76.20;;;;;;4839654;29;20268;-62
2022/06/16 09:52:41;;;;;;;7.32;2.80;;;22.80;73.90;;;;;;4838870;29;20745;-62
2022/06/16 09:55:29;;;;;;;4.43;2.90;;;23.10;74.40;;;;;;4824987;29;20201;-64
2022/06/16 09:58:24;;;;;;;5.53;2.88;;;22.90;73.10;;;;;;4857838;29;20389;-62
2022/06/16 10:00:54;;;;;;;13.82;3.35;;;23.00;73.50;;;;;;4858206;29;20177;-62
2022/06/16 10:03:20;;;;;;;6.05;2.88;;;23.20;73.10;;;;;;4856913;29;20181;-62
2022/06/16 10:06:20;;;;;;;7.00;2.58;;;23.20;70.70;;;;;;4856982;29;20292;-63
2022/06/16 10:08:51;;;;;;;4.32;2.50;;;22.90;70.40;;;;;;4857734;29;20208;-61
2022/06/16 10:11:33;;;;;;;8.13;2.92;;;22.90;71.70;;;;;;4843452;29;20182;-64
2022/06/16 10:14:12;;;;;;;14.95;4.68;;;22.90;70.40;;;;;;4839194;29;20246;-61
2022/06/16 10:17:14;;;;;;;8.80;3.50;;;23.20;71.80;;;;;;4839447;29;20197;-62
2022/06/16 10:19:46;;;;;;;8.85;2.95;;;23.60;70.70;;;;;;4838715;29;20173;-62
2022/06/16 10:22:15;;;;;;;11.57;3.28;;;23.70;70.30;;;;;;4839178;29;20277;-62
2022/06/16 10:24:57;;;;;;;7.80;2.90;;;23.90;70.20;;;;;;4840854;29;20181;-63
2022/06/16 10:27:44;;;;;;;7.15;3.35;;;24.10;69.90;;;;;;4841997;29;20228;-67
2022/06/16 10:30:33;;;;;;;9.35;3.03;;;24.10;69.40;;;;;;4842173;29;20640;-62
2022/06/16 10:33:16;;;;;;;6.13;2.97;;;24.20;68.50;;;;;;4827999;29;20225;-66
2022/06/16 10:35:57;;;;;;;5.13;2.47;;;24.20;68.60;;;;;;4842971;29;20181;-65
2022/06/16 10:38:34;;;;;;;10.75;3.70;;;24.30;68.40;;;;;;4842143;29;20219;-70
2022/06/16 10:41:04;;;;;;;9.90;3.30;;;24.70;69.00;;;;;;4842171;29;20189;-63
2022/06/16 10:43:37;;;;;;;6.88;3.22;;;25.10;67.10;;;;;;4823938;29;20178;-61
2022/06/16 10:46:20;;;;;;;8.52;3.10;;;25.50;66.20;;;;;;4828167;29;20221;-61
2022/06/16 10:48:49;;;;;;;11.07;3.22;;;25.70;65.50;;;;;;4825868;29;20197;-62
2022/06/16 10:51:27;;;;;;;10.10;7.53;;;25.60;64.60;;;;;;4824079;29;20187;-62
2022/06/16 10:54:12;;;;;;;10.95;3.72;;;25.80;64.50;;;;;;4823645;29;20190;-63
2022/06/16 10:56:40;;;;;;;5.95;2.95;;;26.20;64.10;;;;;;4850447;29;20667;-61
2022/06/16 10:59:19;;;;;;;6.22;3.00;;;26.40;61.80;;;;;;4860790;29;20189;-61
2022/06/16 11:02:01;;;;;;;6.07;3.22;;;26.10;61.80;;;;;;4860364;29;20214;-61
2022/06/16 11:04:39;;;;;;;10.48;6.00;;;25.80;62.30;;;;;;4843396;29;20189;-62
2022/06/16 11:07:10;;;;;;;5.38;2.50;;;25.60;63.20;;;;;;4860591;29;20296;-63
2022/06/16 11:09:35;;;;;;;13.25;3.55;;;25.60;62.40;;;;;;4842730;29;20193;-63
2022/06/16 11:12:05;;;;;;;5.07;2.53;;;26.00;61.80;;;;;;4842008;29;20178;-64
2022/06/16 11:14:36;;;;;;;9.45;3.08;;;26.10;62.40;;;;;;4841754;29;20196;-63
2022/06/16 11:17:33;;;;;;;9.07;3.15;;;25.90;60.70;;;;;;4841793;29;20261;-60
2022/06/16 11:20:38;;;;;;;5.93;2.50;;;26.50;61.20;;;;;;4839175;29;20248;-61
2022/06/16 11:23:22;;;;;;;4.65;2.83;;;26.90;58.60;;;;;;4842277;29;20181;-62
2022/06/16 11:26:17;;;;;;;5.35;2.20;;;27.00;57.90;;;;;;4841291;29;20182;-61
2022/06/16 11:29:11;;;;;;;6.15;2.50;;;28.60;55.50;;;;;;4840657;29;20233;-62
2022/06/16 11:31:52;;;;;;;7.68;3.15;;;31.10;50.70;;;;;;4820542;29;20202;-66
2022/06/16 11:34:27;;;;;;;5.07;2.45;;;31.20;47.40;;;;;;4841798;29;20185;-63
2022/06/16 11:37:08;;;;;;;5.45;3.05;;;31.90;46.40;;;;;;4840813;29;20200;-62
2022/06/16 11:39:46;;;;;;;7.65;2.45;;;32.50;44.30;;;;;;4841590;29;20528;-62
2022/06/16 11:42:34;;;;;;;5.13;3.08;;;33.40;44.20;;;;;;4841773;29;20276;-61
2022/06/16 11:45:50;;;;;;;5.53;3.03;;;33.90;42.20;;;;;;4841274;29;20261;-64
2022/06/16 11:49:00;;;;;;;9.45;2.80;;;34.60;41.20;;;;;;4784931;30;20655;-65
2022/06/16 11:51:48;;;;;;;11.60;3.45;;;35.60;40.80;;;;;;4841367;29;20313;-71
2022/06/16 11:54:28;;;;;;;4.93;3.03;;;36.80;40.30;;;;;;4841316;29;20280;-63
2022/06/16 11:57:13;;;;;;;7.55;3.03;;;37.60;38.00;;;;;;4850812;29;20197;-62
2022/06/16 12:00:10;;;;;;;7.45;3.25;;;37.50;38.00;;;;;;4836544;29;20265;-63
2022/06/16 12:02:45;;;;;;;14.70;3.50;;;37.10;38.40;;;;;;4801395;29;20527;-65
2022/06/16 12:05:47;;;;;;;6.05;2.65;;;37.20;39.00;;;;;;4823494;29;20221;-65
2022/06/16 12:08:26;;;;;;;5.65;3.10;;;36.70;38.40;;;;;;4823240;29;20555;-63
2022/06/16 12:11:04;;;;;;;10.88;3.20;;;35.50;38.40;;;;;;4822790;29;20221;-65
2022/06/16 12:13:52;;;;;;;6.90;2.40;;;36.40;38.90;;;;;;4823018;29;20194;-60
2022/06/16 12:16:36;;;;;;;5.65;2.65;;;38.10;36.80;;;;;;4820671;29;20193;-60
2022/06/16 12:19:20;;;;;;;11.48;3.30;;;38.90;35.70;;;;;;4840164;29;20608;-61
2022/06/16 12:22:09;;;;;;;7.03;3.03;;;38.40;35.00;;;;;;4824086;29;20193;-60
2022/06/16 12:24:42;;;;;;;13.30;2.90;;;38.10;36.50;;;;;;4840553;29;20264;-59
2022/06/16 12:27:29;;;;;;;10.43;3.15;;;38.50;33.60;;;;;;4840612;29;20217;-60
2022/06/16 12:30:10;;;;;;;18.52;5.22;;;38.10;35.70;;;;;;4840245;29;20232;-63
2022/06/16 12:33:03;;;;;;;4.10;2.28;;;37.50;35.60;;;;;;4825023;29;20635;-68
2022/06/16 12:35:51;;;;;;;10.60;2.97;;;36.90;35.70;;;;;;4840821;29;20298;-68
2022/06/16 12:39:00;;;;;;;8.07;2.83;;;37.80;35.50;;;;;;4840665;29;20284;-65
2022/06/16 12:41:50;;;;;;;7.68;3.20;;;37.90;35.40;;;;;;4765893;30;20215;-66
2022/06/16 12:44:42;;;;;;;6.20;2.55;;;38.10;33.50;;;;;;4763633;30;20274;-58
2022/06/16 12:47:34;;;;;;;6.45;2.60;;;38.80;32.90;;;;;;4828267;29;20590;-69
2022/06/16 12:50:05;;;;;;;6.63;2.38;;;40.00;32.60;;;;;;4839973;29;20197;-63
2022/06/16 12:52:37;;;;;;;3.83;1.90;;;40.40;31.90;;;;;;4839983;29;20325;-62
2022/06/16 12:55:29;;;;;;;5.40;2.72;;;39.30;32.60;;;;;;4841833;29;20195;-59
2022/06/16 12:58:02;;;;;;;6.15;2.83;;;40.50;31.70;;;;;;4849244;29;20196;-58
2022/06/16 13:00:35;;;;;;;8.43;1.98;;;40.30;31.80;;;;;;4833354;29;20809;-58
2022/06/16 13:03:16;;;;;;;10.18;2.83;;;40.40;31.80;;;;;;4832650;29;20197;-60
2022/06/16 13:05:43;;;;;;;4.65;1.95;;;40.40;31.60;;;;;;4821935;29;20185;-59
2022/06/16 13:08:10;;;;;;;4.78;1.75;;;40.20;31.40;;;;;;4822293;29;20201;-62
2022/06/16 13:10:57;;;;;;;6.53;1.92;;;40.50;31.10;;;;;;4830024;29;20197;-61
2022/06/16 13:13:29;;;;;;;4.55;2.53;;;40.70;30.90;;;;;;4840316;29;20271;-59
2022/06/16 13:16:00;;;;;;;3.50;1.83;;;41.20;30.30;;;;;;4840102;29;20225;-60
2022/06/16 13:18:33;;;;;;;5.60;2.28;;;40.60;30.70;;;;;;4840323;29;20292;-60
2022/06/16 13:21:04;;;;;;;10.80;6.75;;;41.20;31.10;;;;;;4840074;29;20189;-63
2022/06/16 13:23:45;;;;;;;10.27;3.10;;;42.30;29.60;;;;;;4840168;29;20283;-60
2022/06/16 13:26:27;;;;;;;8.57;2.63;;;40.40;30.30;;;;;;4840387;29;20292;-58
2022/06/16 13:29:02;;;;;;;5.55;2.80;;;39.00;32.60;;;;;;4839632;29;20585;-60
2022/06/16 13:31:59;;;;;;;8.00;2.97;;;38.80;32.90;;;;;;4839783;29;20181;-60
2022/06/16 13:34:50;;;;;;;8.70;2.10;;;38.70;33.00;;;;;;4839535;29;20193;-63
2022/06/16 13:37:28;;;;;;;15.45;3.75;;;39.30;31.90;;;;;;4839785;29;20222;-59
2022/06/16 13:40:06;;;;;;;5.22;1.90;;;39.00;32.00;;;;;;4839360;29;20189;-59